Saint Johnsbury, VT (05819)

11:45 AM EST on December 10, 2016 (GMT -0500)
Barnet School | | Change Station

Elev 728 ft 44.31 °N, 72.08 °W | Updated 4 minutes ago

Overcast
Overcast
20.2 °F
Feels Like 20 °F
N
2.0
Wind Variable Wind from East
Gusts 2.0 mph

Today
High -- | Low -- °F
--% Chance of Precip.
Yesterday
High -- | Low -- °F
Precip. -- in
Pressure 30.24 in
Visibility 2.5 miles
Clouds Scattered Clouds 1600 ft
Mostly Cloudy 2400 ft
Overcast 3000 ft
Windchill 20 °F
Dew Point 10 °F
Humidity 65%
Rainfall 0.00 in
Snow Depth Not available.
7:13 AM 4:08 PM
Waxing Gibbous, 84% visible
METAR KCDA 101635Z AUTO 28005KT 2 1/2SM -SN SCT016 BKN024 OVC030 M09/M13 A3024 RMK AO2 T10921131
Pressure 30.24 in
Visibility 2.5 miles
Clouds Scattered Clouds 1600 ft
Mostly Cloudy 2400 ft
Overcast 3000 ft
Windchill 20 °F
Dew Point 10 °F
Humidity 65%
Rainfall 0.00 in
Snow Depth Not available.
7:13 AM 4:08 PM
Waxing Gibbous, 84% visible
METAR KCDA 101635Z AUTO 28005KT 2 1/2SM -SN SCT016 BKN024 OVC030 M09/M13 A3024 RMK AO2 T10921131

10-Day Weather Forecast

Almanac

Astronomy

Dec. 10, 2016 Rise Set
Actual Time
Civil Twilight
Nautical Twilight
Astronomical Twilight
Moon
Length of Visible Light
Length of Day
Tomorrow will be .
, % of the Moon is Illuminated

Today's Extremes

State Highs State Lows

Community

WunderPhotos

Upload Photos

1,956,569 photos uploaded!

WunderBlog® & News

Nearby

Air Quality

  Air Quality AQ Index Pollutant
Not available.

Snow Depth

Station Depth Elevation

Earthquake Activity

City Distance Mag. Time & Date
Minimum magnitude displayed is 2.5.

Coastal Water Temperatures

Place Temperature

Stations

Nearby Weather Stations

Station Location Temp. Windchill Dew Point Humidity Wind Precip. Elev Updated Type
                   

Watches & Warnings

There are currently no watches in effect.